Time;durP1;ratioP1;P1;durP2;ratioP2;P2;SDS_P1;SDS_P2;PMS_P1;PMS_P2;Temp;Humidity;BMP_temperature;BMP_pressure;BME280_temperature;BME280_humidity;BME280_pressure;Samples;Min_cycle;Max_cycle;Signal;HPM_P1;HPM_P2
2023/08/04 00:00:10;;;;;;;6.10;1.95;;;16.40;99.90;;;;;;5032427;28;20453;-76
2023/08/04 00:02:36;;;;;;;7.93;2.20;;;16.40;99.90;;;;;;5011011;28;20116;-76
2023/08/04 00:05:03;;;;;;;8.15;2.20;;;16.40;99.90;;;;;;5034884;28;20397;-75
2023/08/04 00:07:29;;;;;;;9.13;2.50;;;16.40;99.90;;;;;;5022219;28;20045;-75
2023/08/04 00:09:54;;;;;;;7.22;2.33;;;16.40;99.90;;;;;;5042737;28;20045;-77
2023/08/04 00:12:20;;;;;;;8.98;2.40;;;16.40;99.90;;;;;;5017146;28;20514;-76
2023/08/04 00:14:47;;;;;;;7.18;2.22;;;16.40;99.90;;;;;;5034479;28;20075;-76
2023/08/04 00:17:13;;;;;;;12.57;3.03;;;16.40;99.90;;;;;;5034791;28;20071;-76
2023/08/04 00:19:39;;;;;;;8.15;2.42;;;16.30;99.90;;;;;;5017337;28;20036;-76
2023/08/04 00:22:05;;;;;;;8.35;2.53;;;16.30;99.90;;;;;;5017187;28;20034;-77
2023/08/04 00:24:30;;;;;;;7.10;2.38;;;16.40;99.90;;;;;;5018182;28;20452;-76
2023/08/04 00:26:56;;;;;;;9.65;2.40;;;16.30;99.90;;;;;;5035363;28;20060;-76
2023/08/04 00:29:22;;;;;;;7.65;2.10;;;16.40;99.90;;;;;;5033507;28;20494;-76
2023/08/04 00:31:47;;;;;;;8.18;2.33;;;16.30;99.90;;;;;;5012800;28;20053;-76
2023/08/04 00:34:13;;;;;;;7.85;2.00;;;16.30;99.90;;;;;;4998056;28;20042;-76
2023/08/04 00:36:38;;;;;;;8.05;1.98;;;16.40;99.90;;;;;;4998136;28;20124;-76
2023/08/04 00:39:04;;;;;;;6.57;2.28;;;16.30;99.90;;;;;;5017969;28;20119;-76
2023/08/04 00:41:29;;;;;;;9.35;2.25;;;16.30;99.90;;;;;;5028038;28;20029;-76
2023/08/04 00:43:55;;;;;;;8.60;2.00;;;16.30;99.90;;;;;;5006221;28;20041;-76
2023/08/04 00:46:22;;;;;;;8.75;2.30;;;16.30;99.90;;;;;;5033244;28;20121;-76
2023/08/04 00:48:48;;;;;;;8.85;2.55;;;16.30;99.90;;;;;;5017480;28;20055;-76
2023/08/04 00:51:13;;;;;;;7.22;2.17;;;16.30;99.90;;;;;;5033153;28;20501;-76
2023/08/04 00:53:40;;;;;;;7.43;2.65;;;16.30;99.90;;;;;;5033965;28;20041;-76
2023/08/04 00:56:06;;;;;;;8.25;2.60;;;16.30;99.90;;;;;;5035032;28;20037;-76
2023/08/04 00:58:34;;;;;;;7.20;2.42;;;16.30;99.90;;;;;;5016905;28;20091;-76
2023/08/04 01:01:00;;;;;;;7.13;2.35;;;16.30;99.90;;;;;;5032931;28;20048;-76
2023/08/04 01:03:26;;;;;;;9.50;2.38;;;16.30;99.90;;;;;;5016216;28;20497;-76
2023/08/04 01:06:04;;;;;;;5.47;1.98;;;16.30;99.90;;;;;;5016598;28;20509;-76
2023/08/04 01:08:34;;;;;;;9.25;1.95;;;16.30;99.90;;;;;;5033657;28;20037;-76
2023/08/04 01:11:05;;;;;;;8.00;2.35;;;16.30;99.90;;;;;;5045879;28;20049;-76
2023/08/04 01:13:32;;;;;;;7.55;2.00;;;16.30;99.90;;;;;;5029801;28;20084;-77
2023/08/04 01:16:00;;;;;;;8.15;2.13;;;16.30;99.90;;;;;;5033269;28;20076;-76
2023/08/04 01:18:25;;;;;;;11.02;2.15;;;16.30;99.90;;;;;;5015778;28;20042;-76
2023/08/04 01:20:51;;;;;;;9.27;2.45;;;16.30;99.90;;;;;;5033492;28;20045;-76
2023/08/04 01:23:17;;;;;;;11.27;2.30;;;16.30;99.90;;;;;;5016282;28;20036;-76
2023/08/04 01:25:43;;;;;;;9.13;2.45;;;16.20;99.90;;;;;;5031607;28;20041;-76
2023/08/04 01:28:15;;;;;;;8.02;2.40;;;16.20;99.90;;;;;;5033069;28;20391;-76
2023/08/04 01:30:42;;;;;;;;;;;16.20;99.90;;;;;;5033708;28;20056;-76
2023/08/04 01:33:08;;;;;;;9.50;2.28;;;16.20;99.90;;;;;;5031466;28;19940;-76
2023/08/04 01:35:34;;;;;;;7.05;1.95;;;16.20;99.90;;;;;;5015253;28;20414;-76
2023/08/04 01:37:59;;;;;;;8.57;2.10;;;16.10;99.90;;;;;;5033096;28;20452;-76
2023/08/04 01:40:25;;;;;;;9.57;2.20;;;16.20;99.90;;;;;;5033000;28;20041;-76
2023/08/04 01:42:51;;;;;;;10.15;2.30;;;16.20;99.90;;;;;;5015653;28;20409;-76
2023/08/04 01:45:16;;;;;;;8.80;1.90;;;16.10;99.90;;;;;;5032975;28;20038;-76
2023/08/04 01:47:42;;;;;;;7.72;1.92;;;16.10;99.90;;;;;;5032848;28;20037;-76
2023/08/04 01:50:09;;;;;;;7.65;2.05;;;16.10;99.90;;;;;;5031732;28;20041;-76
2023/08/04 01:52:35;;;;;;;6.05;1.80;;;16.00;99.90;;;;;;5032398;28;20042;-76
2023/08/04 01:55:00;;;;;;;6.88;2.00;;;16.00;99.90;;;;;;5015542;28;20122;-77
2023/08/04 01:57:26;;;;;;;5.80;1.60;;;16.00;99.90;;;;;;5024025;28;20068;-76
2023/08/04 01:59:52;;;;;;;7.55;1.60;;;16.00;99.90;;;;;;5018580;28;20469;-77
2023/08/04 02:02:17;;;;;;;5.55;2.00;;;15.90;99.90;;;;;;5019182;28;20037;-76
2023/08/04 02:04:43;;;;;;;8.38;1.88;;;15.90;99.90;;;;;;5009839;28;20052;-76
2023/08/04 02:07:08;;;;;;;7.05;1.83;;;15.90;99.90;;;;;;5029687;28;20116;-76
2023/08/04 02:09:34;;;;;;;7.72;1.67;;;15.90;99.90;;;;;;5032940;28;20029;-76
2023/08/04 02:12:00;;;;;;;6.32;1.67;;;15.90;99.90;;;;;;5022068;28;20120;-76
2023/08/04 02:14:28;;;;;;;6.55;1.63;;;15.90;99.90;;;;;;5031184;28;20037;-76
2023/08/04 02:16:54;;;;;;;5.25;1.35;;;15.80;99.90;;;;;;5011722;28;20038;-76
2023/08/04 02:19:22;;;;;;;8.25;1.50;;;15.80;99.90;;;;;;5012460;28;20523;-77
2023/08/04 02:21:48;;;;;;;6.28;1.33;;;15.80;99.90;;;;;;5023970;28;20116;-76
2023/08/04 02:24:13;;;;;;;4.45;1.50;;;15.80;99.90;;;;;;5028644;28;20498;-76
2023/08/04 02:26:39;;;;;;;7.10;1.35;;;15.90;99.90;;;;;;5014984;28;20140;-76
2023/08/04 02:29:05;;;;;;;4.10;1.42;;;15.80;99.90;;;;;;5009893;28;20076;-76
2023/08/04 02:31:32;;;;;;;6.47;1.52;;;15.90;99.90;;;;;;5031422;28;20064;-77
2023/08/04 02:33:59;;;;;;;5.90;1.80;;;15.80;99.90;;;;;;5006022;28;20422;-76
2023/08/04 02:36:24;;;;;;;4.70;1.63;;;15.80;99.90;;;;;;5029708;28;20040;-76
2023/08/04 02:38:50;;;;;;;3.40;1.45;;;15.90;99.90;;;;;;5030839;28;20029;-76
2023/08/04 02:41:16;;;;;;;3.95;1.60;;;15.80;99.90;;;;;;5021348;28;20034;-76
2023/08/04 02:43:41;;;;;;;4.70;1.50;;;15.80;99.90;;;;;;5025079;28;20033;-76
2023/08/04 02:46:10;;;;;;;8.02;1.50;;;15.80;99.90;;;;;;5031087;28;20100;-76
2023/08/04 02:48:36;;;;;;;6.03;1.50;;;15.80;99.90;;;;;;5032441;28;20041;-76
2023/08/04 02:51:04;;;;;;;4.30;1.33;;;15.80;99.90;;;;;;5012010;28;20406;-77
2023/08/04 02:53:30;;;;;;;4.43;1.42;;;15.80;99.90;;;;;;5013399;28;20040;-76
2023/08/04 02:55:56;;;;;;;5.90;1.40;;;15.90;99.90;;;;;;5012902;28;20498;-76
2023/08/04 02:58:23;;;;;;;6.10;1.52;;;15.90;99.90;;;;;;5031167;28;20039;-76
2023/08/04 03:00:49;;;;;;;5.47;1.60;;;15.90;99.90;;;;;;5041557;28;20111;-76
2023/08/04 03:03:15;;;;;;;4.72;1.50;;;15.80;99.90;;;;;;5030476;28;20088;-76
2023/08/04 03:05:41;;;;;;;6.35;1.50;;;15.70;99.90;;;;;;5031219;28;20061;-76
2023/08/04 03:08:06;;;;;;;3.33;1.35;;;15.70;99.90;;;;;;5014533;28;20552;-76
2023/08/04 03:10:32;;;;;;;5.00;1.40;;;15.80;99.90;;;;;;5029631;28;20121;-76
2023/08/04 03:12:57;;;;;;;4.88;1.50;;;15.70;99.90;;;;;;4995696;28;20041;-76
2023/08/04 03:15:23;;;;;;;10.10;1.60;;;15.80;99.90;;;;;;5015762;28;20037;-76
2023/08/04 03:17:50;;;;;;;5.43;1.48;;;15.70;99.90;;;;;;5030381;28;20053;-76
2023/08/04 03:20:16;;;;;;;9.95;2.08;;;15.70;99.90;;;;;;5027783;28;20052;-76
2023/08/04 03:22:42;;;;;;;6.32;1.55;;;15.80;99.90;;;;;;5024623;28;20493;-76
2023/08/04 03:25:09;;;;;;;4.22;1.48;;;15.70;99.90;;;;;;5003643;28;20041;-76
2023/08/04 03:27:35;;;;;;;5.00;1.70;;;15.80;99.90;;;;;;4997392;28;20125;-76
2023/08/04 03:30:02;;;;;;;4.25;1.30;;;15.80;99.90;;;;;;5048890;28;20569;-76
2023/08/04 03:32:27;;;;;;;4.85;1.40;;;15.80;99.90;;;;;;5031635;28;20076;-76
2023/08/04 03:34:53;;;;;;;5.80;1.60;;;15.70;99.90;;;;;;5031475;28;20042;-77
2023/08/04 03:37:19;;;;;;;5.50;1.52;;;15.80;99.90;;;;;;5018430;28;20087;-76
2023/08/04 03:39:44;;;;;;;5.82;1.50;;;15.80;99.90;;;;;;5034113;28;20060;-77
2023/08/04 03:42:10;;;;;;;4.75;1.50;;;15.70;99.90;;;;;;5033777;28;20068;-76
2023/08/04 03:44:35;;;;;;;3.92;1.40;;;15.70;99.90;;;;;;5034476;28;20417;-76
2023/08/04 03:47:02;;;;;;;4.30;1.63;;;15.70;99.90;;;;;;5015357;28;20046;-76
2023/08/04 03:49:28;;;;;;;4.40;1.63;;;15.70;99.90;;;;;;5030653;28;20535;-76
2023/08/04 03:51:53;;;;;;;4.38;1.55;;;15.80;99.90;;;;;;5018541;28;20041;-76
2023/08/04 03:54:19;;;;;;;5.53;1.50;;;15.80;99.90;;;;;;5034208;28;20045;-76
2023/08/04 03:56:44;;;;;;;6.85;1.90;;;15.80;99.90;;;;;;5033672;28;20037;-77
2023/08/04 03:59:11;;;;;;;3.97;1.65;;;15.70;99.90;;;;;;5028665;28;20401;-76
2023/08/04 04:01:38;;;;;;;3.03;1.35;;;15.70;99.90;;;;;;5025071;28;20117;-77
2023/08/04 04:04:03;;;;;;;3.83;1.48;;;15.70;99.90;;;;;;5014696;28;20052;-76
2023/08/04 04:06:29;;;;;;;6.00;1.67;;;15.70;99.90;;;;;;5034569;28;20406;-76
2023/08/04 04:08:54;;;;;;;5.22;1.40;;;15.70;99.90;;;;;;5028301;28;20461;-76
2023/08/04 04:11:20;;;;;;;4.53;1.70;;;15.60;99.90;;;;;;5029641;28;20057;-77
2023/08/04 04:13:46;;;;;;;5.22;1.60;;;15.70;99.90;;;;;;4999507;28;20117;-77
2023/08/04 04:16:11;;;;;;;3.75;1.50;;;15.70;99.90;;;;;;5034781;28;20473;-76
2023/08/04 04:18:37;;;;;;;3.55;1.33;;;15.70;99.90;;;;;;5035693;28;20037;-77
2023/08/04 04:21:02;;;;;;;4.05;1.33;;;15.70;99.90;;;;;;5031972;28;20037;-78
2023/08/04 04:23:28;;;;;;;3.97;1.40;;;15.70;99.90;;;;;;5014401;28;20044;-76
2023/08/04 04:25:54;;;;;;;5.10;1.50;;;15.70;99.90;;;;;;5028566;28;20047;-75
2023/08/04 04:28:19;;;;;;;4.15;1.40;;;15.70;99.90;;;;;;5031485;28;20073;-77
2023/08/04 04:30:45;;;;;;;3.50;1.23;;;15.80;99.90;;;;;;5029917;28;20551;-77
2023/08/04 04:33:11;;;;;;;5.25;1.50;;;15.70;99.90;;;;;;5016281;28;20045;-77
2023/08/04 04:35:37;;;;;;;3.70;1.30;;;15.80;99.90;;;;;;5027032;28;20116;-77
2023/08/04 04:38:02;;;;;;;4.07;1.50;;;15.70;99.90;;;;;;5031862;28;20490;-77
2023/08/04 04:40:28;;;;;;;2.95;1.40;;;15.70;99.90;;;;;;5006439;28;20066;-77
2023/08/04 04:42:53;;;;;;;5.75;1.25;;;15.80;99.90;;;;;;5010194;28;20478;-77
2023/08/04 04:45:19;;;;;;;5.10;1.20;;;15.80;99.90;;;;;;5025125;28;20045;-77
2023/08/04 04:47:45;;;;;;;2.88;1.10;;;15.80;99.90;;;;;;5016791;28;20041;-77
2023/08/04 04:50:11;;;;;;;3.30;1.20;;;15.70;99.90;;;;;;5030431;28;20150;-76
2023/08/04 04:52:37;;;;;;;2.60;1.30;;;15.70;99.90;;;;;;5011712;28;20073;-77
2023/08/04 04:55:04;;;;;;;3.67;1.23;;;15.60;99.90;;;;;;5032729;28;20049;-76
2023/08/04 04:57:30;;;;;;;3.97;1.35;;;15.70;99.90;;;;;;5016756;28;20421;-77
2023/08/04 04:59:56;;;;;;;3.95;1.42;;;15.70;99.90;;;;;;5012689;28;20059;-76
2023/08/04 05:02:22;;;;;;;4.20;1.58;;;15.60;99.90;;;;;;5014993;28;20052;-76
2023/08/04 05:04:48;;;;;;;3.30;1.40;;;15.80;99.90;;;;;;5028221;28;20091;-76
2023/08/04 05:07:13;;;;;;;4.68;1.50;;;15.90;99.90;;;;;;5010861;28;20041;-77
2023/08/04 05:09:39;;;;;;;5.00;1.42;;;15.90;99.90;;;;;;5031779;28;20067;-76
2023/08/04 05:12:06;;;;;;;3.13;1.52;;;15.90;99.90;;;;;;5033083;28;20146;-77
2023/08/04 05:14:33;;;;;;;2.63;1.42;;;16.00;99.90;;;;;;5015466;28;20507;-76
2023/08/04 05:16:59;;;;;;;4.75;1.60;;;15.90;99.90;;;;;;5022686;28;20056;-77
2023/08/04 05:19:24;;;;;;;5.13;1.70;;;15.90;99.90;;;;;;5005403;28;20034;-76
2023/08/04 05:21:50;;;;;;;4.00;1.70;;;15.90;99.90;;;;;;5016237;28;20410;-76
2023/08/04 05:24:15;;;;;;;3.40;1.70;;;16.00;99.90;;;;;;5014077;28;20041;-76
2023/08/04 05:26:41;;;;;;;5.32;1.83;;;16.00;99.90;;;;;;5023902;28;20085;-76
2023/08/04 05:29:06;;;;;;;5.68;1.85;;;16.00;99.90;;;;;;5032090;28;20095;-76
2023/08/04 05:31:32;;;;;;;4.63;2.33;;;16.00;99.90;;;;;;5023394;28;20116;-76
2023/08/04 05:34:00;;;;;;;4.32;1.80;;;16.10;99.90;;;;;;5026223;28;20049;-76
2023/08/04 05:36:26;;;;;;;3.20;1.70;;;16.10;99.90;;;;;;5020249;28;20041;-77
2023/08/04 05:38:52;;;;;;;4.80;1.55;;;16.00;99.90;;;;;;4997017;28;20096;-77
2023/08/04 05:41:17;;;;;;;4.00;1.77;;;16.10;99.90;;;;;;4997806;28;20062;-76
2023/08/04 05:43:43;;;;;;;3.40;1.50;;;16.10;99.90;;;;;;5031194;28;20034;-76
2023/08/04 05:46:12;;;;;;;5.32;2.25;;;16.10;99.90;;;;;;5032212;28;20116;-76
2023/08/04 05:48:38;;;;;;;6.05;2.00;;;16.10;99.90;;;;;;5033577;28;20037;-76
2023/08/04 05:51:04;;;;;;;5.22;1.60;;;16.10;99.90;;;;;;5006129;28;20042;-76
2023/08/04 05:53:29;;;;;;;4.22;1.88;;;16.10;99.90;;;;;;5006219;28;20160;-76
2023/08/04 05:55:55;;;;;;;3.72;1.88;;;16.10;99.90;;;;;;5030595;28;20452;-80
2023/08/04 05:58:21;;;;;;;5.72;1.67;;;16.20;99.90;;;;;;5032442;28;20037;-79
2023/08/04 06:00:46;;;;;;;5.60;2.15;;;16.20;99.90;;;;;;4996725;28;20418;-82
2023/08/04 06:03:12;;;;;;;5.65;2.00;;;16.30;99.90;;;;;;5012899;28;20037;-77
2023/08/04 06:05:37;;;;;;;5.45;1.90;;;16.30;99.90;;;;;;5014290;28;20034;-78
2023/08/04 06:08:04;;;;;;;7.30;2.15;;;16.30;99.90;;;;;;5016685;28;20037;-77
2023/08/04 06:10:29;;;;;;;5.65;1.92;;;16.30;99.90;;;;;;5028026;28;20041;-77
2023/08/04 06:12:55;;;;;;;4.70;2.10;;;16.40;99.90;;;;;;5013827;28;20047;-77
2023/08/04 06:15:23;;;;;;;6.45;2.10;;;16.40;99.90;;;;;;5019795;28;20052;-77
2023/08/04 06:17:48;;;;;;;5.93;2.00;;;16.40;99.90;;;;;;4996599;28;20038;-78
2023/08/04 06:20:14;;;;;;;7.13;2.20;;;16.40;99.90;;;;;;5023782;28;20539;-77
2023/08/04 06:22:40;;;;;;;6.10;2.15;;;16.40;99.90;;;;;;5015901;28;20037;-79
2023/08/04 06:25:06;;;;;;;6.78;2.60;;;16.40;99.90;;;;;;5030934;28;20100;-78
2023/08/04 06:27:32;;;;;;;6.35;2.22;;;16.40;99.90;;;;;;5032227;28;20123;-78
2023/08/04 06:29:59;;;;;;;6.85;2.42;;;16.40;99.90;;;;;;5011902;28;20482;-78
2023/08/04 06:32:25;;;;;;;7.53;1.88;;;16.40;99.90;;;;;;5032667;28;20048;-78
2023/08/04 06:34:51;;;;;;;4.53;2.00;;;16.40;99.90;;;;;;5019216;28;20112;-78
2023/08/04 06:37:17;;;;;;;5.85;2.20;;;16.50;99.90;;;;;;4995591;28;20475;-77
2023/08/04 06:39:42;;;;;;;5.90;2.22;;;16.50;99.90;;;;;;4998497;28;20504;-78
2023/08/04 06:42:08;;;;;;;5.47;2.13;;;16.50;99.90;;;;;;5013056;28;20048;-77
2023/08/04 06:44:34;;;;;;;5.90;2.22;;;16.50;99.90;;;;;;5020327;28;20387;-77
2023/08/04 06:46:59;;;;;;;5.18;1.95;;;16.50;99.90;;;;;;5012321;28;20095;-78
2023/08/04 06:49:25;;;;;;;4.53;2.10;;;16.60;99.90;;;;;;5015067;28;20119;-77
2023/08/04 06:51:50;;;;;;;6.10;2.20;;;16.60;99.90;;;;;;4995147;28;20487;-77
2023/08/04 06:54:16;;;;;;;6.40;2.30;;;16.70;99.90;;;;;;5019493;28;20053;-77
2023/08/04 06:56:42;;;;;;;6.32;2.28;;;16.70;99.90;;;;;;5026539;28;20045;-77
2023/08/04 06:59:08;;;;;;;7.00;2.30;;;16.70;99.90;;;;;;5014611;28;20091;-77
2023/08/04 07:01:33;;;;;;;6.30;2.10;;;16.70;99.90;;;;;;5029162;28;20091;-77
2023/08/04 07:03:59;;;;;;;5.65;2.40;;;16.80;99.90;;;;;;5026120;28;20045;-77
2023/08/04 07:06:24;;;;;;;8.23;2.53;;;16.80;99.90;;;;;;5015897;28;20068;-77
2023/08/04 07:08:50;;;;;;;6.57;2.00;;;16.80;99.90;;;;;;5035065;28;20041;-77
2023/08/04 07:11:17;;;;;;;6.95;2.38;;;16.90;99.90;;;;;;5002031;28;20042;-77
2023/08/04 07:13:43;;;;;;;5.70;2.20;;;17.10;99.90;;;;;;5022391;28;20042;-77
2023/08/04 07:16:10;;;;;;;6.60;2.58;;;17.10;99.90;;;;;;5007834;28;20043;-77
2023/08/04 07:18:39;;;;;;;7.35;2.20;;;17.10;99.90;;;;;;5017202;28;20088;-79
2023/08/04 07:21:06;;;;;;;5.90;2.00;;;17.10;99.90;;;;;;5017440;28;20033;-79
2023/08/04 07:23:32;;;;;;;7.45;2.03;;;17.10;99.90;;;;;;5010967;28;20070;-80
2023/08/04 07:25:58;;;;;;;7.03;2.10;;;17.20;99.90;;;;;;5003039;28;20077;-78
2023/08/04 07:28:24;;;;;;;6.60;2.15;;;17.10;99.90;;;;;;5019105;28;20098;-79
2023/08/04 07:30:49;;;;;;;7.85;2.17;;;17.30;99.90;;;;;;5029009;28;20038;-79
2023/08/04 07:33:15;;;;;;;6.32;2.35;;;17.30;99.90;;;;;;5005007;28;20180;-79
2023/08/04 07:35:40;;;;;;;6.68;2.28;;;17.30;99.90;;;;;;5007371;28;20049;-79
2023/08/04 07:38:06;;;;;;;6.70;2.50;;;17.40;99.90;;;;;;4999473;28;20129;-79
2023/08/04 07:40:31;;;;;;;6.82;2.42;;;17.50;99.90;;;;;;5016601;28;20041;-80
2023/08/04 07:42:57;;;;;;;5.38;2.35;;;17.40;99.90;;;;;;5036666;28;20137;-79
2023/08/04 07:45:23;;;;;;;5.30;2.13;;;17.50;99.90;;;;;;5033386;28;20041;-79
2023/08/04 07:47:48;;;;;;;6.28;2.20;;;17.50;99.90;;;;;;5036483;28;20045;-79
2023/08/04 07:50:14;;;;;;;8.45;2.35;;;17.60;99.90;;;;;;5034707;28;20033;-79
2023/08/04 07:52:39;;;;;;;7.00;2.25;;;17.40;99.90;;;;;;5014817;28;20087;-79
2023/08/04 07:55:08;;;;;;;5.40;1.92;;;17.40;99.90;;;;;;5017658;28;20467;-79
2023/08/04 07:57:33;;;;;;;5.28;2.40;;;17.40;99.90;;;;;;5018711;28;20152;-79
2023/08/04 07:59:59;;;;;;;5.53;2.20;;;17.50;99.90;;;;;;5017216;28;20541;-79
2023/08/04 08:02:24;;;;;;;7.22;2.20;;;17.60;99.90;;;;;;5036079;28;20045;-79
2023/08/04 08:04:50;;;;;;;5.75;2.00;;;17.60;99.90;;;;;;5030503;28;20041;-79
2023/08/04 08:07:15;;;;;;;6.10;2.20;;;17.60;99.90;;;;;;5029232;28;20041;-79
2023/08/04 08:09:41;;;;;;;8.55;3.05;;;17.70;99.90;;;;;;5034866;28;20417;-78
2023/08/04 08:12:07;;;;;;;10.70;2.20;;;17.70;99.90;;;;;;5035003;28;20042;-79
2023/08/04 08:14:32;;;;;;;7.30;2.33;;;17.70;99.90;;;;;;5009574;28;20052;-79
2023/08/04 08:16:58;;;;;;;6.38;2.08;;;17.70;99.90;;;;;;5018126;28;20045;-79
2023/08/04 08:19:24;;;;;;;6.85;2.22;;;17.70;99.90;;;;;;5023724;28;20038;-79
2023/08/04 08:21:49;;;;;;;6.80;2.60;;;17.80;99.90;;;;;;5017692;28;20037;-79
2023/08/04 08:24:15;;;;;;;6.45;2.25;;;17.80;99.90;;;;;;5035971;28;20560;-78
2023/08/04 08:26:40;;;;;;;5.80;2.00;;;17.90;99.90;;;;;;5016992;28;20057;-79
2023/08/04 08:29:06;;;;;;;6.88;2.30;;;17.90;99.90;;;;;;5028893;28;20383;-79
2023/08/04 08:31:31;;;;;;;6.18;2.40;;;18.00;99.90;;;;;;5032906;28;20034;-79
2023/08/04 08:33:57;;;;;;;5.75;2.20;;;18.10;99.90;;;;;;5032930;28;20110;-78
2023/08/04 08:36:24;;;;;;;7.82;2.10;;;18.20;99.90;;;;;;5015924;28;20041;-79
2023/08/04 08:38:49;;;;;;;5.10;2.28;;;18.20;99.90;;;;;;5032183;28;20489;-79
2023/08/04 08:41:15;;;;;;;4.97;2.20;;;18.20;99.90;;;;;;5017097;28;20054;-79
2023/08/04 08:43:41;;;;;;;7.30;2.10;;;18.30;99.90;;;;;;5034428;28;20390;-79
2023/08/04 08:46:07;;;;;;;7.72;1.95;;;18.40;99.90;;;;;;5035393;28;20033;-79
2023/08/04 08:48:37;;;;;;;9.68;2.30;;;18.50;99.90;;;;;;5032523;28;20037;-79
2023/08/04 08:51:11;;;;;;;5.40;1.92;;;18.50;99.90;;;;;;5017879;28;20049;-79
2023/08/04 08:53:38;;;;;;;5.45;1.80;;;18.50;99.90;;;;;;5017476;28;20132;-79
2023/08/04 08:56:04;;;;;;;9.43;2.13;;;18.50;99.90;;;;;;5034956;28;20041;-79
2023/08/04 08:58:32;;;;;;;7.63;1.98;;;18.40;99.90;;;;;;5033923;28;20088;-80
2023/08/04 09:00:59;;;;;;;5.15;1.77;;;18.40;99.90;;;;;;5027587;28;20112;-80
2023/08/04 09:03:24;;;;;;;6.95;1.45;;;18.50;99.90;;;;;;5031852;28;20073;-79
2023/08/04 09:05:50;;;;;;;6.72;1.73;;;18.50;99.90;;;;;;5032719;28;20085;-80
2023/08/04 09:08:16;;;;;;;7.13;1.85;;;18.60;99.90;;;;;;5016749;28;20124;-80
2023/08/04 09:10:44;;;;;;;8.55;1.90;;;18.70;99.90;;;;;;5007009;28;20514;-80
2023/08/04 09:13:12;;;;;;;6.40;1.52;;;18.80;99.90;;;;;;5012046;28;20037;-80
2023/08/04 09:16:04;;;;;;;8.88;1.80;;;18.90;99.90;;;;;;5008435;28;20395;-80
2023/08/04 09:18:33;;;;;;;6.88;2.00;;;19.20;99.90;;;;;;5029432;28;20466;-85
2023/08/04 09:21:04;;;;;;;6.88;1.63;;;19.20;99.90;;;;;;5027619;28;20048;-82
2023/08/04 09:23:30;;;;;;;5.95;1.60;;;19.30;99.90;;;;;;5018305;28;20034;-80
2023/08/04 09:25:56;;;;;;;5.35;1.65;;;19.10;99.90;;;;;;5013263;28;20044;-79
2023/08/04 09:28:22;;;;;;;5.63;1.63;;;19.00;99.90;;;;;;5025931;28;20053;-80
2023/08/04 09:31:04;;;;;;;5.07;1.23;;;18.90;99.90;;;;;;5033479;28;20033;-80
2023/08/04 09:33:30;;;;;;;3.15;1.27;;;18.80;99.90;;;;;;5016739;28;20502;-80
2023/08/04 09:36:15;;;;;;;5.22;1.20;;;18.70;99.90;;;;;;5034465;28;20084;-80
2023/08/04 09:38:42;;;;;;;4.32;1.20;;;18.60;99.90;;;;;;5033464;28;20045;-80
2023/08/04 09:41:13;;;;;;;7.32;1.45;;;18.60;99.90;;;;;;5033102;28;20044;-80
2023/08/04 09:43:46;;;;;;;6.82;1.63;;;18.50;99.90;;;;;;5016727;28;20121;-80
2023/08/04 09:46:12;;;;;;;4.72;1.48;;;18.50;99.90;;;;;;5034382;28;20037;-80
2023/08/04 09:48:38;;;;;;;4.43;1.30;;;18.40;99.90;;;;;;5034235;28;20370;-80
2023/08/04 09:51:08;;;;;;;5.35;1.52;;;18.50;99.90;;;;;;5016513;28;20049;-80
2023/08/04 09:53:56;;;;;;;3.80;1.60;;;18.50;99.90;;;;;;5032813;28;20044;-80
2023/08/04 09:56:27;;;;;;;7.25;1.58;;;18.60;99.90;;;;;;5033323;28;20041;-80
2023/08/04 09:58:52;;;;;;;8.52;1.50;;;18.60;99.90;;;;;;5033060;28;20044;-81
2023/08/04 10:01:18;;;;;;;8.00;1.80;;;18.80;99.90;;;;;;5016349;28;20042;-81
2023/08/04 10:03:49;;;;;;;7.63;1.60;;;18.90;99.90;;;;;;5034157;28;20042;-81
2023/08/04 10:06:17;;;;;;;9.90;1.90;;;19.10;99.90;;;;;;5008892;28;20037;-80
2023/08/04 10:08:42;;;;;;;4.03;1.52;;;19.10;99.90;;;;;;5023391;28;20233;-80
2023/08/04 10:11:09;;;;;;;8.57;2.20;;;19.00;99.90;;;;;;5015278;28;20516;-80
2023/08/04 10:13:38;;;;;;;10.48;2.05;;;18.90;99.90;;;;;;5016003;28;20048;-79
2023/08/04 10:16:08;;;;;;;6.57;1.70;;;18.80;99.90;;;;;;5015940;28;20056;-79
2023/08/04 10:18:53;;;;;;;5.55;1.80;;;18.70;99.90;;;;;;5016055;28;20125;-80
2023/08/04 10:21:40;;;;;;;5.35;1.60;;;18.60;99.90;;;;;;5033555;28;20486;-80
2023/08/04 10:24:07;;;;;;;6.88;1.50;;;18.60;99.90;;;;;;5033544;28;20044;-80
2023/08/04 10:26:34;;;;;;;5.35;1.90;;;18.60;99.90;;;;;;5032035;28;20406;-81
2023/08/04 10:29:03;;;;;;;5.60;1.58;;;18.70;99.90;;;;;;5032378;28;20068;-81
2023/08/04 10:31:58;;;;;;;8.38;2.55;;;18.80;99.90;;;;;;5031298;28;20039;-81
2023/08/04 10:34:31;;;;;;;5.45;2.05;;;18.80;99.90;;;;;;5003991;28;20062;-81
2023/08/04 10:37:11;;;;;;;5.43;1.80;;;19.00;99.90;;;;;;4996054;28;20038;-81
2023/08/04 10:39:45;;;;;;;5.32;1.75;;;19.00;99.90;;;;;;4995340;28;20041;-81
2023/08/04 10:42:11;;;;;;;6.90;2.00;;;19.00;99.90;;;;;;5013853;28;20394;-81
2023/08/04 10:44:52;;;;;;;6.90;1.90;;;19.00;99.90;;;;;;4996222;28;20050;-81
2023/08/04 10:47:41;;;;;;;6.90;1.80;;;18.90;99.90;;;;;;4995797;28;20124;-81
2023/08/04 10:50:07;;;;;;;6.32;1.90;;;18.90;99.90;;;;;;5027672;28;20493;-81
2023/08/04 10:52:34;;;;;;;7.53;1.80;;;18.90;99.90;;;;;;5010757;28;20048;-81
2023/08/04 10:55:01;;;;;;;8.45;2.22;;;18.90;99.90;;;;;;5029940;28;20053;-81
2023/08/04 10:57:31;;;;;;;6.30;1.70;;;18.80;99.90;;;;;;5031718;28;20037;-81
2023/08/04 10:59:57;;;;;;;5.78;1.90;;;18.80;99.90;;;;;;5003177;28;20037;-80
2023/08/04 11:02:24;;;;;;;8.90;2.03;;;18.70;99.90;;;;;;5015910;28;20130;-81
2023/08/04 11:04:52;;;;;;;7.78;1.92;;;18.70;99.90;;;;;;5012286;28;20117;-80
2023/08/04 11:07:19;;;;;;;6.65;2.03;;;18.70;99.90;;;;;;5027580;28;20117;-80
2023/08/04 11:09:45;;;;;;;7.43;2.10;;;18.60;99.90;;;;;;5033474;28;20486;-80
2023/08/04 11:12:13;;;;;;;7.72;2.03;;;18.70;99.90;;;;;;5026572;28;20038;-80
2023/08/04 11:14:38;;;;;;;8.60;1.95;;;18.80;99.90;;;;;;5037493;28;20033;-80
2023/08/04 11:17:18;;;;;;;6.90;1.80;;;19.00;99.90;;;;;;5030572;28;20041;-81
2023/08/04 11:19:50;;;;;;;5.32;1.95;;;19.10;99.90;;;;;;5019143;28;20048;-80
2023/08/04 11:22:21;;;;;;;6.20;1.60;;;19.40;99.90;;;;;;5014759;28;20474;-80
2023/08/04 11:24:46;;;;;;;5.43;1.60;;;19.60;99.90;;;;;;5003518;28;20069;-80
2023/08/04 11:27:14;;;;;;;7.03;1.88;;;19.70;99.90;;;;;;5008508;28;20510;-80
2023/08/04 11:29:40;;;;;;;6.53;1.70;;;19.60;99.90;;;;;;5018530;28;20048;-82
2023/08/04 11:32:17;;;;;;;7.72;1.77;;;19.40;99.90;;;;;;5031533;28;20041;-81
2023/08/04 11:34:43;;;;;;;4.10;1.40;;;19.60;99.90;;;;;;5020382;28;20549;-81
2023/08/04 11:37:09;;;;;;;3.85;1.60;;;19.70;99.90;;;;;;5014237;28;20033;-81
2023/08/04 11:39:37;;;;;;;4.10;1.35;;;19.70;99.90;;;;;;5024632;28;20038;-81
2023/08/04 11:42:03;;;;;;;6.38;1.63;;;19.60;99.90;;;;;;5027210;28;20033;-81
2023/08/04 11:44:30;;;;;;;4.50;1.48;;;19.50;99.90;;;;;;5032896;28;20064;-81
2023/08/04 11:46:55;;;;;;;4.95;1.40;;;19.50;99.90;;;;;;5005438;28;20478;-81
2023/08/04 11:49:22;;;;;;;6.47;1.70;;;19.40;99.90;;;;;;5048282;28;20045;-81
2023/08/04 11:51:48;;;;;;;6.20;1.67;;;19.40;99.90;;;;;;5049672;28;20033;-81
2023/08/04 11:54:18;;;;;;;4.55;1.30;;;19.40;99.90;;;;;;5005256;28;20034;-81
2023/08/04 11:56:44;;;;;;;5.25;1.40;;;19.40;99.90;;;;;;5030316;28;20044;-80
2023/08/04 11:59:10;;;;;;;5.93;1.40;;;19.30;99.90;;;;;;5035267;28;20402;-81
2023/08/04 12:01:36;;;;;;;6.55;1.70;;;19.30;99.90;;;;;;5023619;28;20030;-81
2023/08/04 12:04:03;;;;;;;6.57;1.60;;;19.20;99.90;;;;;;5016148;28;20034;-81
2023/08/04 12:06:29;;;;;;;5.88;1.48;;;19.10;99.90;;;;;;5029148;28;20037;-81
2023/08/04 12:08:58;;;;;;;6.32;1.55;;;19.10;99.90;;;;;;5034200;28;20045;-80
2023/08/04 12:11:25;;;;;;;6.10;1.48;;;19.30;99.90;;;;;;4999221;28;20124;-81
2023/08/04 12:13:51;;;;;;;5.88;1.30;;;19.40;99.90;;;;;;4998701;28;20117;-80
2023/08/04 12:16:17;;;;;;;3.63;1.23;;;19.50;99.90;;;;;;5001803;28;20113;-81
2023/08/04 12:18:44;;;;;;;6.18;1.30;;;19.60;99.90;;;;;;5018314;28;20037;-80
2023/08/04 12:21:10;;;;;;;5.53;1.40;;;19.60;99.90;;;;;;5018087;28;20493;-80
2023/08/04 12:23:37;;;;;;;3.22;1.02;;;19.70;99.90;;;;;;5027116;28;20155;-80
2023/08/04 12:26:03;;;;;;;5.35;1.30;;;19.80;99.90;;;;;;5027411;28;20045;-80
2023/08/04 12:28:29;;;;;;;3.85;1.30;;;19.90;99.90;;;;;;5021315;28;20065;-80
2023/08/04 12:30:54;;;;;;;3.70;1.30;;;19.90;99.90;;;;;;5014351;28;20092;-80
2023/08/04 12:33:20;;;;;;;4.85;0.98;;;19.90;99.90;;;;;;5033123;28;20082;-80
2023/08/04 12:35:46;;;;;;;4.80;1.20;;;20.00;99.90;;;;;;5032508;28;20489;-80
2023/08/04 12:38:12;;;;;;;4.22;1.20;;;19.90;99.90;;;;;;5033337;28;20037;-81
2023/08/04 12:40:38;;;;;;;4.88;1.17;;;19.90;99.90;;;;;;5034160;28;20041;-80
2023/08/04 12:43:04;;;;;;;5.05;1.42;;;20.00;99.90;;;;;;5014705;28;20038;-80
2023/08/04 12:45:29;;;;;;;4.10;1.50;;;19.90;99.90;;;;;;5031137;28;20487;-80